Time;durP1;ratioP1;P1;durP2;ratioP2;P2;SDS_P1;SDS_P2;PMS_P1;PMS_P2;Temp;Humidity;BMP_temperature;BMP_pressure;BME280_temperature;BME280_humidity;BME280_pressure;Samples;Min_cycle;Max_cycle;Signal;HPM_P1;HPM_P2
2020/12/31 00:02:13;;;;;;;26.88;17.13;;;;;;;2.85;70.78;99316.63;5011749;28;20065;-82
2020/12/31 00:04:39;;;;;;;26.83;17.13;;;;;;;2.82;71.10;99298.63;5012224;28;20064;-82
2020/12/31 00:07:05;;;;;;;28.75;18.08;;;;;;;2.78;71.24;99296.22;5012143;28;20429;-82
2020/12/31 00:09:31;;;;;;;35.78;18.90;;;;;;;2.81;70.13;99307.34;5012239;28;20038;-82
2020/12/31 00:11:57;;;;;;;36.28;19.50;;;;;;;2.85;70.48;99312.25;5011850;28;20483;-82
2020/12/31 00:14:22;;;;;;;29.10;18.00;;;;;;;2.68;70.26;99299.38;4996016;28;20030;-82
2020/12/31 00:16:47;;;;;;;30.77;18.02;;;;;;;2.83;70.38;99318.47;4992808;28;20034;-82
2020/12/31 00:19:13;;;;;;;29.13;18.52;;;;;;;2.84;70.60;99320.94;4996178;28;20479;-82
2020/12/31 00:21:38;;;;;;;32.40;18.48;;;;;;;2.85;71.01;99308.84;5012301;28;20022;-82
2020/12/31 00:24:05;;;;;;;32.38;18.85;;;;;;;2.83;70.59;99324.47;5011763;28;20072;-82
2020/12/31 00:26:31;;;;;;;28.35;18.00;;;;;;;2.71;70.00;99323.38;5011924;28;20041;-82
2020/12/31 00:28:56;;;;;;;33.20;19.30;;;;;;;2.76;70.56;99328.31;5002257;28;20027;-82
2020/12/31 00:31:22;;;;;;;42.08;22.15;;;;;;;2.63;70.09;99328.13;4997793;28;20026;-82
2020/12/31 00:33:47;;;;;;;37.83;21.67;;;;;;;2.69;70.92;99338.16;4992289;28;20453;-82
2020/12/31 00:36:13;;;;;;;33.63;20.38;;;;;;;2.58;70.25;99320.56;4992353;28;20097;-82
2020/12/31 00:38:38;;;;;;;31.05;19.58;;;;;;;2.72;70.82;99337.16;5002732;28;20365;-82
2020/12/31 00:41:03;;;;;;;35.80;20.52;;;;;;;2.67;69.89;99327.03;5011892;28;20088;-82
2020/12/31 00:43:29;;;;;;;33.38;20.65;;;;;;;2.75;70.55;99331.81;5011191;28;20026;-82
2020/12/31 00:45:55;;;;;;;36.10;21.63;;;;;;;2.70;69.42;99324.28;5011670;28;20029;-82
2020/12/31 00:48:20;;;;;;;32.40;21.05;;;;;;;2.64;69.51;99322.00;5011474;28;20499;-82
2020/12/31 00:50:46;;;;;;;38.83;21.85;;;;;;;2.57;70.51;99328.44;5011787;28;20088;-82
2020/12/31 00:53:11;;;;;;;29.05;18.35;;;;;;;2.64;71.08;99319.41;5012011;28;20026;-82
2020/12/31 00:55:36;;;;;;;32.05;20.02;;;;;;;2.56;70.54;99330.19;5011608;28;20361;-82
2020/12/31 00:58:02;;;;;;;26.88;17.65;;;;;;;2.62;70.29;99315.25;5011413;28;20026;-82
2020/12/31 01:00:28;;;;;;;31.20;19.48;;;;;;;2.65;70.26;99320.28;5011459;28;20494;-82
2020/12/31 01:02:53;;;;;;;34.22;19.67;;;;;;;2.57;69.25;99328.44;5007293;28;20080;-82
2020/12/31 01:05:18;;;;;;;35.33;21.83;;;;;;;2.58;70.61;99327.53;5011719;28;20030;-82
2020/12/31 01:07:44;;;;;;;33.63;20.52;;;;;;;2.45;69.95;99324.75;5012197;28;20030;-82
2020/12/31 01:10:10;;;;;;;30.50;20.67;;;;;;;2.48;69.87;99329.75;5011250;28;20120;-82
2020/12/31 01:12:36;;;;;;;31.23;19.48;;;;;;;2.45;71.17;99314.38;5011699;28;20040;-82
2020/12/31 01:15:04;;;;;;;36.20;20.23;;;;;;;2.39;69.91;99327.66;5011609;28;20030;-82
2020/12/31 01:17:29;;;;;;;35.30;21.63;;;;;;;2.49;71.44;99330.56;5011251;28;20034;-82
2020/12/31 01:19:54;;;;;;;38.10;23.75;;;;;;;2.48;70.85;99332.34;5043344;28;20049;-82
2020/12/31 01:22:20;;;;;;;33.33;21.00;;;;;;;2.46;71.15;99330.75;5011790;28;20068;-82
2020/12/31 01:24:46;;;;;;;49.63;22.88;;;;;;;2.47;70.60;99332.41;5015080;28;20061;-82
2020/12/31 01:27:12;;;;;;;42.45;22.77;;;;;;;2.48;69.87;99328.91;5014144;28;20034;-82
2020/12/31 01:29:38;;;;;;;41.08;24.20;;;;;;;2.43;70.64;99334.34;5014976;28;20079;-82
2020/12/31 01:32:03;;;;;;;38.28;23.35;;;;;;;2.41;70.40;99332.72;5014435;28;20120;-82
2020/12/31 01:34:29;;;;;;;32.92;20.45;;;;;;;2.44;69.96;99330.81;5014843;28;20136;-82
2020/12/31 01:36:54;;;;;;;34.72;20.70;;;;;;;2.48;70.36;99334.09;5014932;28;20034;-82
2020/12/31 01:39:21;;;;;;;32.40;22.60;;;;;;;2.46;70.33;99338.53;5014850;28;20077;-82
2020/12/31 01:41:46;;;;;;;41.53;21.38;;;;;;;2.51;70.82;99339.13;5015140;28;20472;-82
2020/12/31 01:44:12;;;;;;;40.50;22.83;;;;;;;2.57;69.49;99344.81;5014890;28;20040;-82
2020/12/31 01:46:42;;;;;;;31.95;20.70;;;;;;;2.43;69.46;99342.13;5014168;28;20030;-82
2020/12/31 01:49:08;;;;;;;34.50;20.75;;;;;;;2.36;70.40;99351.13;5014489;28;20030;-83
2020/12/31 01:51:39;;;;;;;34.53;20.85;;;;;;;2.33;70.02;99357.28;5014659;28;20057;-82
2020/12/31 01:54:04;;;;;;;37.95;22.00;;;;;;;2.35;70.54;99352.00;5014778;28;20022;-83
2020/12/31 01:56:32;;;;;;;32.67;21.38;;;;;;;2.27;70.12;99357.59;5014505;28;20026;-82
2020/12/31 01:58:58;;;;;;;35.10;21.58;;;;;;;2.24;70.27;99357.75;5014643;28;20068;-82
2020/12/31 02:01:25;;;;;;;39.05;23.73;;;;;;;2.15;70.22;99355.63;5013743;28;20030;-82
2020/12/31 02:03:52;;;;;;;32.65;22.23;;;;;;;2.24;70.55;99357.75;5014532;28;20030;-82
2020/12/31 02:06:20;;;;;;;35.45;22.80;;;;;;;2.22;71.02;99354.41;5014277;28;20053;-82
2020/12/31 02:08:45;;;;;;;32.42;21.33;;;;;;;2.28;70.34;99368.81;5015066;28;20100;-82
2020/12/31 02:11:15;;;;;;;30.60;20.23;;;;;;;2.25;70.42;99359.44;5014060;28;20029;-82
2020/12/31 02:13:41;;;;;;;31.63;19.63;;;;;;;2.24;70.20;99356.91;5014536;28;20026;-82
2020/12/31 02:16:21;;;;;;;27.58;17.33;;;;;;;2.22;69.98;99359.59;5006973;28;20384;-82
2020/12/31 02:18:59;;;;;;;23.48;14.35;;;;;;;2.26;71.40;99363.69;4995756;28;20433;-82
2020/12/31 02:21:38;;;;;;;20.13;12.20;;;;;;;2.27;70.43;99367.97;5008701;28;20046;-82
2020/12/31 02:24:06;;;;;;;15.23;8.93;;;;;;;2.34;70.69;99364.13;5013425;28;20033;-82
2020/12/31 02:26:33;;;;;;;11.30;5.90;;;;;;;2.44;71.33;99366.28;5014212;28;20084;-82
2020/12/31 02:28:59;;;;;;;8.95;5.60;;;;;;;2.43;71.03;99359.41;5014148;28;20100;-82
2020/12/31 02:31:26;;;;;;;8.38;5.22;;;;;;;2.54;71.30;99364.88;5013295;28;20100;-83
2020/12/31 02:33:56;;;;;;;7.10;4.50;;;;;;;2.58;70.97;99368.97;5013767;28;20030;-82
2020/12/31 02:36:26;;;;;;;8.27;4.97;;;;;;;2.61;71.62;99366.25;5013765;28;20455;-83
2020/12/31 02:38:52;;;;;;;8.68;4.45;;;;;;;2.61;71.05;99361.06;5013524;28;20052;-83
2020/12/31 02:41:18;;;;;;;8.05;4.82;;;;;;;2.68;72.09;99370.16;5012347;28;20433;-82
2020/12/31 02:43:43;;;;;;;7.85;4.82;;;;;;;2.66;71.19;99358.22;5013834;28;20026;-83
2020/12/31 02:46:15;;;;;;;8.25;4.28;;;;;;;2.70;70.93;99363.16;5011869;28;20034;-82
2020/12/31 02:48:41;;;;;;;8.48;4.93;;;;;;;2.73;71.24;99365.59;5013490;28;20026;-82
2020/12/31 02:51:08;;;;;;;9.32;4.43;;;;;;;2.76;72.07;99367.19;5013113;28;20068;-83
2020/12/31 02:53:34;;;;;;;9.65;4.72;;;;;;;2.78;71.54;99360.16;5013701;28;20014;-82
2020/12/31 02:56:00;;;;;;;7.47;5.07;;;;;;;2.84;71.40;99371.97;5013458;28;20040;-83
2020/12/31 02:58:25;;;;;;;7.88;4.43;;;;;;;2.86;71.44;99363.19;5013524;28;20109;-83
2020/12/31 03:00:51;;;;;;;6.65;4.38;;;;;;;2.89;71.35;99375.16;5005625;28;20122;-83
2020/12/31 03:03:17;;;;;;;11.38;5.50;;;;;;;2.94;69.35;99379.19;4993878;28;20109;-83
2020/12/31 03:05:42;;;;;;;20.75;13.80;;;;;;;2.80;69.13;99379.06;5010610;28;20034;-82
2020/12/31 03:08:07;;;;;;;18.40;13.10;;;;;;;2.88;69.62;99383.84;5013936;28;20084;-83
2020/12/31 03:10:33;;;;;;;26.77;17.40;;;;;;;2.76;70.04;99375.81;5013177;28;20095;-82
2020/12/31 03:12:59;;;;;;;28.48;18.00;;;;;;;2.83;70.14;99380.69;5013037;28;20472;-83
2020/12/31 03:15:24;;;;;;;24.42;17.02;;;;;;;2.68;68.08;99377.94;5011581;28;20034;-82
2020/12/31 03:17:51;;;;;;;29.35;19.05;;;;;;;2.61;69.55;99379.19;5012543;28;20427;-83
2020/12/31 03:20:16;;;;;;;32.92;19.80;;;;;;;2.60;69.08;99385.28;5012971;28;20076;-82
2020/12/31 03:22:41;;;;;;;35.28;19.85;;;;;;;2.48;69.12;99375.56;5013183;28;20025;-82
2020/12/31 03:25:07;;;;;;;24.70;17.27;;;;;;;2.50;69.37;99373.72;5000298;28;20489;-83
2020/12/31 03:27:33;;;;;;;27.67;18.27;;;;;;;2.47;69.72;99368.69;4993172;28;20053;-83
2020/12/31 03:29:58;;;;;;;27.77;16.80;;;;;;;2.53;69.06;99378.75;4993423;28;20035;-82
2020/12/31 03:32:24;;;;;;;27.35;17.15;;;;;;;2.47;69.50;99379.06;5011471;28;20033;-82
2020/12/31 03:34:49;;;;;;;24.20;14.70;;;;;;;2.39;69.68;99387.25;5012821;28;20034;-82
2020/12/31 03:37:14;;;;;;;22.98;15.55;;;;;;;2.48;69.43;99381.56;5027920;28;20034;-82
2020/12/31 03:39:43;;;;;;;18.90;13.32;;;;;;;2.47;69.86;99384.22;5001063;28;20543;-83
2020/12/31 03:42:08;;;;;;;14.73;10.85;;;;;;;2.37;69.72;99384.72;5007783;28;20022;-82
2020/12/31 03:44:34;;;;;;;12.07;7.32;;;;;;;2.44;69.68;99379.22;5012398;28;20033;-83
2020/12/31 03:47:00;;;;;;;9.32;5.93;;;;;;;2.40;70.16;99373.34;5012141;28;20022;-83
2020/12/31 03:49:25;;;;;;;8.63;4.40;;;;;;;2.42;70.19;99381.06;5012768;28;20387;-83
2020/12/31 03:51:51;;;;;;;5.50;4.18;;;;;;;2.41;69.94;99379.38;5012530;28;20049;-83
2020/12/31 03:54:16;;;;;;;7.95;4.78;;;;;;;2.30;70.25;99378.16;5012113;28;20026;-83
2020/12/31 03:56:42;;;;;;;11.70;4.97;;;;;;;2.27;71.19;99387.84;5012346;28;20088;-83
2020/12/31 03:59:07;;;;;;;7.88;5.05;;;;;;;2.20;70.17;99386.47;5011985;28;20029;-83
2020/12/31 04:01:34;;;;;;;13.45;7.30;;;;;;;2.21;70.23;99394.16;5012116;28;20032;-83
2020/12/31 04:04:00;;;;;;;10.30;6.00;;;;;;;2.20;70.80;99386.47;5012302;28;20187;-83
2020/12/31 04:06:26;;;;;;;9.43;5.70;;;;;;;2.20;70.36;99371.78;5012452;28;20371;-83
2020/12/31 04:08:51;;;;;;;8.27;4.53;;;;;;;2.24;70.76;99370.69;5004019;28;20117;-83
2020/12/31 04:11:17;;;;;;;7.45;4.10;;;;;;;2.27;71.01;99364.53;4996286;28;20402;-83
2020/12/31 04:13:42;;;;;;;10.88;4.50;;;;;;;2.31;71.29;99384.16;5012338;28;20387;-83
2020/12/31 04:16:07;;;;;;;5.47;3.97;;;;;;;2.35;71.20;99375.31;5012773;28;20041;-83
2020/12/31 04:18:33;;;;;;;8.00;4.20;;;;;;;2.32;71.13;99371.16;5012239;28;20054;-83
2020/12/31 04:20:58;;;;;;;7.22;4.00;;;;;;;2.27;70.78;99367.97;5012331;28;20034;-83
2020/12/31 04:23:24;;;;;;;6.35;4.05;;;;;;;2.38;71.26;99378.59;5005742;28;20551;-83
2020/12/31 04:25:50;;;;;;;9.75;4.07;;;;;;;2.40;71.15;99382.88;4993284;28;20037;-83
2020/12/31 04:28:16;;;;;;;5.80;4.22;;;;;;;2.39;71.17;99382.06;5010802;28;20030;-82
2020/12/31 04:30:44;;;;;;;7.55;3.95;;;;;;;2.36;71.10;99367.47;5012203;28;20101;-83
2020/12/31 04:33:09;;;;;;;6.82;4.07;;;;;;;2.41;71.13;99372.44;5010493;28;20037;-83
2020/12/31 04:35:35;;;;;;;5.55;3.78;;;;;;;2.38;71.41;99359.63;5011805;28;20030;-83
2020/12/31 04:38:00;;;;;;;7.32;4.80;;;;;;;2.41;71.36;99366.41;5011664;28;20080;-85
2020/12/31 04:40:25;;;;;;;6.80;4.00;;;;;;;2.40;71.16;99362.16;5011435;28;20034;-85
2020/12/31 04:42:51;;;;;;;8.63;4.32;;;;;;;2.34;70.71;99361.53;5011592;28;20030;-83
2020/12/31 04:45:18;;;;;;;7.28;4.18;;;;;;;2.42;70.67;99349.97;5011986;28;20053;-85
2020/12/31 04:47:50;;;;;;;8.73;4.35;;;;;;;2.47;71.31;99353.13;5011873;28;20026;-85
2020/12/31 04:50:20;;;;;;;6.97;4.50;;;;;;;2.49;70.93;99361.66;5027160;28;20025;-85
2020/12/31 04:52:47;;;;;;;8.80;5.18;;;;;;;2.46;71.31;99361.84;5009628;28;20368;-85
2020/12/31 04:55:13;;;;;;;4.80;4.05;;;;;;;2.48;70.16;99360.00;4992167;28;20026;-85
2020/12/31 04:57:38;;;;;;;16.33;6.07;;;;;;;2.44;70.34;99358.50;4992862;28;20120;-84
2020/12/31 05:00:04;;;;;;;10.80;6.55;;;;;;;2.45;70.09;99360.16;5010470;28;20069;-84
2020/12/31 05:02:29;;;;;;;11.27;5.40;;;;;;;2.47;71.34;99366.09;5015645;28;20377;-85
2020/12/31 05:04:57;;;;;;;14.07;5.43;;;;;;;2.42;70.71;99368.09;5015615;28;20029;-84
2020/12/31 05:07:22;;;;;;;13.40;7.10;;;;;;;2.26;69.10;99370.63;5014114;28;20396;-84
2020/12/31 05:10:08;;;;;;;14.25;7.70;;;;;;;2.27;70.14;99364.53;5016175;28;20030;-84
2020/12/31 05:12:33;;;;;;;13.02;7.88;;;;;;;2.14;69.48;99366.91;5013923;28;20029;-84
2020/12/31 05:14:58;;;;;;;13.98;8.93;;;;;;;2.11;69.83;99359.28;5014810;28;20503;-84
2020/12/31 05:17:24;;;;;;;15.40;7.28;;;;;;;1.89;69.67;99365.50;5014065;28;20480;-84
2020/12/31 05:19:49;;;;;;;13.43;6.32;;;;;;;1.90;70.87;99362.03;5015450;28;20025;-83
2020/12/31 05:22:19;;;;;;;8.43;5.22;;;;;;;1.93;70.45;99374.78;5015297;28;20014;-83
2020/12/31 05:24:49;;;;;;;7.00;4.30;;;;;;;1.97;70.15;99365.13;5014851;28;20034;-83
2020/12/31 05:27:22;;;;;;;5.85;4.15;;;;;;;1.95;70.17;99369.56;5015255;28;20110;-84
2020/12/31 05:29:57;;;;;;;7.03;3.90;;;;;;;1.77;69.69;99371.28;5014365;28;20031;-83
2020/12/31 05:32:25;;;;;;;8.45;3.97;;;;;;;1.64;70.60;99377.94;5015094;28;20495;-83
2020/12/31 05:34:55;;;;;;;7.25;3.97;;;;;;;1.71;70.23;99369.00;5015027;28;20026;-84
2020/12/31 05:37:21;;;;;;;4.72;3.80;;;;;;;1.81;71.07;99375.41;5013907;28;20069;-84
2020/12/31 05:39:59;;;;;;;5.75;4.05;;;;;;;1.83;71.37;99367.56;5014821;28;20096;-83
2020/12/31 05:42:29;;;;;;;8.70;3.90;;;;;;;1.94;70.73;99371.31;5014869;28;20026;-83
2020/12/31 05:45:03;;;;;;;6.65;4.15;;;;;;;2.00;70.49;99374.53;5015092;28;20109;-83
2020/12/31 05:47:31;;;;;;;6.40;3.88;;;;;;;1.97;70.51;99371.16;5015026;28;20514;-83
2020/12/31 05:49:56;;;;;;;7.82;4.05;;;;;;;2.00;69.98;99374.53;5014834;28;20088;-84
2020/12/31 05:52:35;;;;;;;4.88;3.85;;;;;;;1.93;69.97;99359.25;5008336;28;20022;-83
2020/12/31 05:55:03;;;;;;;7.72;4.15;;;;;;;1.96;70.29;99382.44;5014981;28;20030;-83
2020/12/31 05:57:42;;;;;;;7.05;3.90;;;;;;;2.01;70.28;99382.19;5014541;28;20037;-83
2020/12/31 06:00:11;;;;;;;4.80;3.88;;;;;;;1.98;69.91;99379.78;5014753;28;20033;-83
2020/12/31 06:02:42;;;;;;;9.45;5.30;;;;;;;1.94;70.21;99370.47;5014374;28;20036;-83
2020/12/31 06:05:10;;;;;;;9.20;4.25;;;;;;;1.97;70.55;99376.34;5014388;28;20076;-83
2020/12/31 06:07:41;;;;;;;7.47;4.72;;;;;;;1.96;70.49;99385.00;5013902;28;20121;-83
2020/12/31 06:10:08;;;;;;;8.23;4.67;;;;;;;1.95;70.58;99385.91;5013978;28;20084;-83
2020/12/31 06:12:49;;;;;;;12.02;5.35;;;;;;;1.96;69.54;99377.25;5014339;28;20033;-83
2020/12/31 06:15:29;;;;;;;9.55;5.03;;;;;;;2.01;70.09;99382.19;5014585;28;20129;-83
2020/12/31 06:17:56;;;;;;;9.13;5.07;;;;;;;1.86;69.14;99388.97;5014205;28;20117;-83
2020/12/31 06:20:24;;;;;;;6.47;4.32;;;;;;;1.86;69.91;99390.72;5014290;28;20080;-83
2020/12/31 06:23:06;;;;;;;5.78;3.15;;;;;;;1.84;70.58;99392.53;5013281;28;20674;-83
2020/12/31 06:25:31;;;;;;;8.07;3.95;;;;;;;1.83;69.91;99402.03;5014222;28;20029;-83
2020/12/31 06:28:04;;;;;;;5.50;3.72;;;;;;;1.79;70.07;99395.34;5014160;28;20423;-83
2020/12/31 06:30:30;;;;;;;6.18;3.75;;;;;;;1.63;70.29;99397.00;5013070;28;20462;-83
2020/12/31 06:32:56;;;;;;;6.05;4.47;;;;;;;1.74;70.33;99399.91;5013368;28;20037;-83
2020/12/31 06:35:25;;;;;;;8.18;4.43;;;;;;;1.73;70.37;99399.06;5012514;28;20034;-82
2020/12/31 06:37:57;;;;;;;10.85;5.30;;;;;;;1.80;70.82;99407.38;4998607;28;20384;-83
2020/12/31 06:40:25;;;;;;;6.28;5.03;;;;;;;1.66;69.85;99407.19;5013717;28;20033;-83
2020/12/31 06:43:10;;;;;;;10.50;6.45;;;;;;;1.61;69.82;99407.41;5013455;28;20472;-82
2020/12/31 06:45:39;;;;;;;6.65;4.65;;;;;;;1.29;71.13;99403.75;5013745;28;20030;-82
2020/12/31 06:48:23;;;;;;;6.45;4.38;;;;;;;1.50;70.18;99407.94;5013753;28;20032;-82
2020/12/31 06:50:58;;;;;;;6.55;4.40;;;;;;;1.11;71.31;99411.41;5013128;28;20156;-82
2020/12/31 06:53:38;;;;;;;10.77;4.32;;;;;;;1.44;70.66;99410.78;5012834;28;20033;-82
2020/12/31 06:56:14;;;;;;;10.85;4.53;;;;;;;1.51;71.14;99404.41;5013600;28;20076;-82
2020/12/31 06:58:44;;;;;;;6.30;3.83;;;;;;;1.24;71.44;99411.69;5013512;28;20030;-82
2020/12/31 07:01:41;;;;;;;10.73;3.97;;;;;;;1.23;71.30;99419.53;5012833;28;20018;-82
2020/12/31 07:04:07;;;;;;;7.38;4.22;;;;;;;1.17;71.89;99424.06;5022735;28;20164;-82
2020/12/31 07:06:32;;;;;;;7.57;3.80;;;;;;;1.44;70.85;99423.69;5013175;28;20077;-83
2020/12/31 07:09:02;;;;;;;11.73;4.50;;;;;;;1.52;70.67;99426.81;5013765;28;20021;-82
2020/12/31 07:11:29;;;;;;;7.38;4.75;;;;;;;1.50;70.41;99431.22;5013334;28;20402;-82
2020/12/31 07:13:54;;;;;;;10.90;5.25;;;;;;;1.46;69.59;99426.22;5013305;28;20022;-83
2020/12/31 07:16:39;;;;;;;7.75;4.95;;;;;;;1.54;70.81;99435.31;5012565;28;20057;-83
2020/12/31 07:19:04;;;;;;;10.95;6.07;;;;;;;1.56;70.88;99441.28;5013195;28;20546;-83
2020/12/31 07:21:31;;;;;;;12.15;6.93;;;;;;;1.56;70.17;99433.50;5010650;28;20029;-83
2020/12/31 07:23:56;;;;;;;12.57;5.63;;;;;;;1.46;70.58;99432.25;5011642;28;20026;-83
2020/12/31 07:26:26;;;;;;;7.53;4.60;;;;;;;1.50;68.98;99438.97;5013089;28;20026;-83
2020/12/31 07:28:52;;;;;;;7.85;4.57;;;;;;;1.41;69.99;99443.72;5011693;28;20026;-83
2020/12/31 07:31:40;;;;;;;8.38;5.20;;;;;;;1.30;70.85;99439.03;5010976;28;20173;-83
2020/12/31 07:34:23;;;;;;;9.05;5.80;;;;;;;1.15;70.12;99449.16;5012442;28;20037;-83
2020/12/31 07:37:05;;;;;;;8.60;5.55;;;;;;;1.13;70.90;99450.97;5012665;28;20045;-83
2020/12/31 07:39:33;;;;;;;11.40;5.30;;;;;;;1.23;71.13;99451.41;5012609;28;20034;-83
2020/12/31 07:42:11;;;;;;;8.88;5.72;;;;;;;1.26;70.51;99453.00;5012861;28;20084;-83
2020/12/31 07:44:54;;;;;;;6.57;4.88;;;;;;;1.19;70.63;99450.69;5012533;28;20026;-82
2020/12/31 07:47:22;;;;;;;15.27;5.95;;;;;;;1.27;70.01;99463.28;4992887;28;20052;-83
2020/12/31 07:49:50;;;;;;;8.77;5.10;;;;;;;1.28;70.29;99467.53;5011718;28;20022;-82
2020/12/31 07:52:16;;;;;;;6.90;4.20;;;;;;;1.24;70.43;99462.56;5012681;28;20437;-82
2020/12/31 07:54:41;;;;;;;8.75;4.38;;;;;;;1.15;69.55;99463.84;5012311;28;20030;-83
2020/12/31 07:57:14;;;;;;;11.00;3.80;;;;;;;1.23;70.52;99471.25;5012274;28;20030;-83
2020/12/31 07:59:44;;;;;;;5.78;4.03;;;;;;;1.25;70.44;99472.84;5012530;28;20030;-83
2020/12/31 08:02:10;;;;;;;7.30;3.65;;;;;;;1.24;70.35;99467.75;5011867;28;20036;-83
2020/12/31 08:04:36;;;;;;;5.00;3.75;;;;;;;1.26;69.68;99465.94;5012291;28;20033;-83
2020/12/31 08:07:03;;;;;;;7.78;4.18;;;;;;;1.22;70.22;99478.16;5012178;28;20030;-83
2020/12/31 08:09:29;;;;;;;6.05;4.28;;;;;;;1.29;70.77;99481.31;5012425;28;20072;-83
2020/12/31 08:11:54;;;;;;;6.45;4.78;;;;;;;1.31;70.76;99488.09;5012134;28;20070;-83
2020/12/31 08:14:19;;;;;;;8.88;3.97;;;;;;;1.28;70.38;99490.81;5010843;28;20022;-83
2020/12/31 08:16:58;;;;;;;4.75;3.55;;;;;;;1.23;69.32;99473.84;5002962;28;20537;-83
2020/12/31 08:19:24;;;;;;;6.95;4.15;;;;;;;1.26;70.30;99477.09;5005453;28;20045;-83
2020/12/31 08:21:54;;;;;;;9.68;4.70;;;;;;;1.29;70.64;99491.66;5010936;28;20037;-83
2020/12/31 08:24:21;;;;;;;7.07;4.28;;;;;;;1.31;70.58;99484.69;5011510;28;20026;-83
2020/12/31 08:26:58;;;;;;;12.70;5.32;;;;;;;1.46;71.92;99485.72;5012239;28;20500;-80
2020/12/31 08:29:33;;;;;;;8.02;4.75;;;;;;;1.51;70.46;99492.38;5010013;28;20396;-83
2020/12/31 08:32:02;;;;;;;8.88;4.25;;;;;;;1.48;69.96;99492.53;5011342;28;20022;-81
2020/12/31 08:34:29;;;;;;;5.80;4.20;;;;;;;1.50;70.40;99497.59;5010960;28;20030;-82
2020/12/31 08:36:55;;;;;;;8.27;4.50;;;;;;;1.42;69.16;99497.94;5011194;28;20444;-81
2020/12/31 08:39:21;;;;;;;7.00;4.80;;;;;;;1.40;70.74;99502.34;5011702;28;20041;-81
2020/12/31 08:41:58;;;;;;;10.38;4.63;;;;;;;1.45;70.69;99497.81;5007962;28;20026;-80
2020/12/31 08:44:25;;;;;;;9.65;4.95;;;;;;;1.46;70.89;99494.34;5011093;28;20034;-82
2020/12/31 08:46:50;;;;;;;8.43;4.80;;;;;;;1.57;71.00;99492.09;5011029;28;20037;-81
2020/12/31 08:49:23;;;;;;;9.70;4.88;;;;;;;1.62;71.43;99496.22;5011110;28;20029;-81
2020/12/31 08:51:49;;;;;;;8.52;5.03;;;;;;;1.77;70.81;99496.34;5010853;28;20499;-81
2020/12/31 08:54:15;;;;;;;5.03;4.10;;;;;;;1.79;70.75;99485.94;5006138;28;20029;-82
2020/12/31 08:56:40;;;;;;;4.85;3.80;;;;;;;1.89;70.39;99496.69;5004905;28;20026;-82
2020/12/31 08:59:10;;;;;;;6.90;3.75;;;;;;;1.85;70.03;99490.81;5005145;28;20038;-82
2020/12/31 09:01:36;;;;;;;8.80;4.55;;;;;;;1.94;70.42;99487.81;5011233;28;20029;-82
2020/12/31 09:04:20;;;;;;;8.07;4.88;;;;;;;1.98;70.07;99489.34;5011252;28;20361;-82
2020/12/31 09:06:47;;;;;;;6.55;4.60;;;;;;;1.94;69.87;99485.22;5011480;28;20025;-81
2020/12/31 09:09:26;;;;;;;9.43;5.97;;;;;;;1.96;70.68;99488.56;5011787;28;20052;-82
2020/12/31 09:12:03;;;;;;;9.52;6.18;;;;;;;2.03;69.52;99502.06;5000517;28;20022;-82
2020/12/31 09:14:30;;;;;;;13.32;6.72;;;;;;;2.05;69.29;99502.00;5011523;28;20029;-82
2020/12/31 09:16:56;;;;;;;10.73;6.30;;;;;;;2.10;69.53;99498.28;5010395;28;20472;-82
2020/12/31 09:19:22;;;;;;;11.98;7.63;;;;;;;2.19;69.61;99502.16;5011500;28;20096;-82
2020/12/31 09:21:48;;;;;;;14.32;9.30;;;;;;;2.24;69.61;99507.16;5011589;28;20025;-83
2020/12/31 09:24:18;;;;;;;15.63;9.38;;;;;;;2.31;69.69;99513.69;5009683;28;20018;-83
2020/12/31 09:26:57;;;;;;;14.35;8.38;;;;;;;2.32;69.77;99498.06;5010386;28;20460;-83
2020/12/31 09:29:24;;;;;;;16.17;10.18;;;;;;;2.39;70.39;99506.41;5011080;28;20049;-83
2020/12/31 09:31:50;;;;;;;20.50;11.25;;;;;;;2.46;68.80;99506.94;5010882;28;20026;-82
2020/12/31 09:34:15;;;;;;;19.90;11.65;;;;;;;2.44;69.62;99506.19;5011020;28;20482;-83
2020/12/31 09:36:41;;;;;;;19.58;12.23;;;;;;;2.41;68.56;99512.34;5010660;28;20201;-83
2020/12/31 09:39:06;;;;;;;19.92;12.55;;;;;;;2.45;69.21;99515.63;5004827;28;20023;-83
2020/12/31 09:41:32;;;;;;;23.50;12.63;;;;;;;2.54;69.45;99520.34;5010515;28;20038;-83
2020/12/31 09:43:57;;;;;;;20.30;12.40;;;;;;;2.49;69.75;99515.41;5012163;28;20034;-83
2020/12/31 09:46:23;;;;;;;19.75;10.52;;;;;;;2.63;69.93;99527.69;5014770;28;20038;-83
2020/12/31 09:48:49;;;;;;;17.67;11.48;;;;;;;2.66;68.83;99524.94;5014162;28;20030;-84
2020/12/31 09:51:16;;;;;;;21.73;13.07;;;;;;;2.80;68.97;99523.41;5014770;28;20363;-82
2020/12/31 09:53:41;;;;;;;19.85;11.70;;;;;;;2.97;69.06;99526.84;5011310;28;20036;-82
2020/12/31 09:56:07;;;;;;;20.25;12.30;;;;;;;3.06;68.16;99532.47;5014651;28;20030;-83
2020/12/31 09:58:32;;;;;;;20.48;11.77;;;;;;;3.21;68.30;99526.50;5014561;28;20026;-83
2020/12/31 10:00:59;;;;;;;24.02;13.55;;;;;;;3.41;68.93;99533.25;5013903;28;20029;-83
2020/12/31 10:03:27;;;;;;;22.05;13.20;;;;;;;3.71;68.27;99529.94;5014958;28;20028;-83
2020/12/31 10:05:52;;;;;;;23.98;10.88;;;;;;;4.05;66.33;99512.50;5014065;28;20480;-83
2020/12/31 10:08:18;;;;;;;19.88;11.25;;;;;;;4.73;65.10;99514.75;5010748;28;20045;-83
2020/12/31 10:10:44;;;;;;;16.38;10.73;;;;;;;5.54;64.36;99522.91;5013106;28;20080;-82
2020/12/31 10:13:09;;;;;;;13.73;9.23;;;;;;;6.43;62.41;99520.88;5014329;28;20045;-82
2020/12/31 10:15:35;;;;;;;10.15;7.00;;;;;;;7.31;59.90;99519.31;5013739;28;20026;-82
2020/12/31 10:18:00;;;;;;;12.35;6.03;;;;;;;7.98;58.38;99519.94;5014516;28;20033;-84
2020/12/31 10:20:25;;;;;;;8.60;5.55;;;;;;;8.76;56.96;99513.44;5014356;28;20034;-83
2020/12/31 10:22:51;;;;;;;9.50;6.07;;;;;;;9.68;57.15;99511.63;5012551;28;20369;-83
2020/12/31 10:25:16;;;;;;;7.40;5.40;;;;;;;10.27;53.45;99518.31;5014548;28;20030;-83
2020/12/31 10:27:41;;;;;;;7.72;5.40;;;;;;;10.60;51.09;99519.16;5014621;28;20117;-83
2020/12/31 10:30:07;;;;;;;6.28;4.60;;;;;;;11.24;51.22;99508.53;5014423;28;20092;-83
2020/12/31 10:32:32;;;;;;;12.90;5.72;;;;;;;11.80;51.09;99509.88;5013998;28;20472;-83
2020/12/31 10:34:58;;;;;;;9.90;6.03;;;;;;;12.12;47.70;99513.28;5014290;28;20076;-83
2020/12/31 10:37:23;;;;;;;9.52;5.35;;;;;;;12.26;47.94;99515.53;5013679;28;20456;-83
2020/12/31 10:39:49;;;;;;;7.78;4.85;;;;;;;12.53;46.99;99517.47;5010937;28;20025;-82
2020/12/31 10:42:14;;;;;;;6.57;4.63;;;;;;;12.58;46.33;99507.38;5013528;28;20534;-82
2020/12/31 10:44:39;;;;;;;6.13;3.90;;;;;;;12.84;45.67;99506.81;5014037;28;20057;-83
2020/12/31 10:47:05;;;;;;;4.88;4.40;;;;;;;12.91;46.47;99510.53;5013956;28;20396;-81
2020/12/31 10:49:30;;;;;;;6.75;4.10;;;;;;;13.42;45.63;99511.13;5013411;28;20056;-81
2020/12/31 10:51:55;;;;;;;7.55;3.80;;;;;;;13.33;45.73;99511.97;5013579;28;20384;-81
2020/12/31 10:54:21;;;;;;;8.38;4.32;;;;;;;13.60;45.51;99505.91;5011338;28;20128;-81
2020/12/31 10:56:48;;;;;;;4.88;2.20;;;;;;;13.86;43.05;99501.63;5005681;28;20026;-81
2020/12/31 10:59:13;;;;;;;4.93;2.60;;;;;;;14.39;43.01;99512.38;5010023;28;20076;-82
2020/12/31 11:01:39;;;;;;;2.97;2.00;;;;;;;14.20;43.45;99514.19;5007324;28;20057;-82
2020/12/31 11:04:04;;;;;;;2.70;1.63;;;;;;;13.65;44.05;99519.50;5012674;28;20025;-82
2020/12/31 11:06:30;;;;;;;4.60;2.95;;;;;;;13.78;42.59;99517.34;5010331;28;20061;-82
2020/12/31 11:08:56;;;;;;;3.72;2.70;;;;;;;13.76;44.45;99515.84;5013285;28;20076;-82
2020/12/31 11:11:30;;;;;;;5.53;2.92;;;;;;;13.73;43.78;99505.59;5013145;28;20030;-82
2020/12/31 11:13:57;;;;;;;5.20;2.83;;;;;;;13.82;43.84;99505.53;5012660;28;20539;-82
2020/12/31 11:16:22;;;;;;;3.38;2.50;;;;;;;13.83;44.60;99509.00;5012938;28;20030;-82
2020/12/31 11:18:48;;;;;;;33.08;3.42;;;;;;;13.99;44.03;99516.28;5010788;28;20029;-82
2020/12/31 11:21:15;;;;;;;19.52;4.10;;;;;;;13.64;45.51;99507.28;5013172;28;20136;-83
2020/12/31 11:23:41;;;;;;;47.53;26.35;;;;;;;13.04;44.87;99511.06;5011246;28;20030;-81
2020/12/31 11:26:17;;;;;;;99.18;54.33;;;;;;;13.33;44.58;99507.56;5011980;28;20087;-81
2020/12/31 11:28:44;;;;;;;105.85;53.67;;;;;;;13.52;43.83;99501.38;5012293;28;20423;-83
2020/12/31 11:31:12;;;;;;;94.70;31.00;;;;;;;13.59;44.64;99494.53;5011784;28;20451;-83
2020/12/31 11:33:38;;;;;;;154.48;23.67;;;;;;;13.54;43.93;99493.31;5011782;28;20025;-80
2020/12/31 11:36:05;;;;;;;56.88;8.00;;;;;;;13.77;44.29;99501.69;5011969;28;20493;-80
2020/12/31 11:38:30;;;;;;;58.30;11.25;;;;;;;13.60;45.11;99495.38;5011786;28;20029;-81